Time;durP1;ratioP1;P1;durP2;ratioP2;P2;SDS_P1;SDS_P2;PMS_P1;PMS_P2;Temp;Humidity;BMP_temperature;BMP_pressure;BME280_temperature;BME280_humidity;BME280_pressure;Samples;Min_cycle;Max_cycle;Signal;HPM_P1;HPM_P2
2023/01/14 00:02:15;;;;;;;;;;;;;;;21.08;35.41;101406.57;104775;1298;61325;-83
2023/01/14 00:04:41;;;;;;;;;;;;;;;21.08;35.45;101408.71;104768;1300;61270;-82
2023/01/14 00:07:07;;;;;;;;;;;;;;;21.08;35.55;101412.13;104852;1295;61299;-82
2023/01/14 00:09:32;;;;;;;;;;;;;;;21.08;35.65;101409.44;105156;1294;61274;-83
2023/01/14 00:11:58;;;;;;;;;;;;;;;21.08;35.45;101411.75;105089;1292;61547;-83
2023/01/14 00:14:30;;;;;;;;;;;;;;;21.08;35.45;101411.75;105120;1293;61409;-83
2023/01/14 00:16:56;;;;;;;;;;;;;;;21.08;35.39;101417.30;105062;1292;73500;-83
2023/01/14 00:19:22;;;;;;;;;;;;;;;21.08;35.56;101417.11;105091;1293;59466;-83
2023/01/14 00:21:48;;;;;;;;;;;;;;;21.08;35.34;101416.42;105113;1295;61303;-83
2023/01/14 00:24:15;;;;;;;;;;;;;;;21.08;35.46;101416.98;105107;1293;61262;-83
2023/01/14 00:26:42;;;;;;;;;;;;;;;21.08;35.51;101419.46;105241;1295;61164;-83
2023/01/14 00:29:17;;;;;;;;;;;;;;;21.08;35.53;101419.63;105226;1297;61302;-83
2023/01/14 00:31:44;;;;;;;;;;;;;;;21.09;35.39;101425.14;105234;1292;61271;-83
2023/01/14 00:34:10;;;;;;;;;;;;;;;21.09;35.52;101424.96;105203;1297;61333;-83
2023/01/14 00:36:35;;;;;;;;;;;;;;;21.10;35.40;101419.20;105421;1285;59262;-83
2023/01/14 00:39:02;;;;;;;;;;;;;;;21.10;35.45;101415.60;105772;1286;61294;-83
2023/01/14 00:41:28;;;;;;;;;;;;;;;21.10;35.63;101414.69;105959;1291;61247;-83
2023/01/14 00:43:54;;;;;;;;;;;;;;;21.10;35.52;101412.04;105966;1288;61261;-83
2023/01/14 00:46:21;;;;;;;;;;;;;;;21.10;35.56;101413.09;105953;1290;61378;-83
2023/01/14 00:48:46;;;;;;;;;;;;;;;21.10;35.55;101413.63;105960;1288;61306;-83
2023/01/14 00:51:12;;;;;;;;;;;;;;;21.11;35.46;101417.73;106013;1285;61307;-83
2023/01/14 00:53:37;;;;;;;;;;;;;;;21.10;35.45;101413.06;105568;1291;61365;-83
2023/01/14 00:56:03;;;;;;;;;;;;;;;21.10;35.43;101411.12;105994;1286;59310;-83
2023/01/14 00:58:29;;;;;;;;;;;;;;;21.10;35.40;101409.12;105941;1291;61365;-83
2023/01/14 01:00:56;;;;;;;;;;;;;;;21.11;35.53;101408.20;105931;1286;61275;-83
2023/01/14 01:03:21;;;;;;;;;;;;;;;21.11;35.43;101406.59;105981;1284;61373;-83
2023/01/14 01:05:47;;;;;;;;;;;;;;;21.11;35.51;101407.46;106041;1286;59244;-82
2023/01/14 01:08:15;;;;;;;;;;;;;;;21.11;35.29;101403.36;105816;1291;61260;-82
2023/01/14 01:10:44;;;;;;;;;;;;;;;21.12;35.50;101402.21;105915;1290;72478;-82
2023/01/14 01:13:10;;;;;;;;;;;;;;;21.12;35.51;101400.09;105998;1286;74449;-82
2023/01/14 01:15:35;;;;;;;;;;;;;;;21.12;35.60;101402.95;106026;1286;60077;-82
2023/01/14 01:18:01;;;;;;;;;;;;;;;21.12;35.48;101402.05;106034;1289;61351;-82
2023/01/14 01:20:27;;;;;;;;;;;;;;;21.12;35.48;101398.33;106011;1290;61333;-82
2023/01/14 01:22:52;;;;;;;;;;;;;;;21.12;35.52;101403.11;105991;1290;61387;-82
2023/01/14 01:25:18;;;;;;;;;;;;;;;21.13;35.57;101398.09;106063;1289;61384;-82
2023/01/14 01:27:43;;;;;;;;;;;;;;;21.13;35.63;101399.17;106139;1286;61346;-82
2023/01/14 01:30:09;;;;;;;;;;;;;;;21.13;35.47;101396.45;106151;1286;61312;-82
2023/01/14 01:32:35;;;;;;;;;;;;;;;21.13;35.51;101395.02;106203;1290;59286;-83
2023/01/14 01:35:24;;;;;;;;;;;;;;;21.14;35.41;101398.38;105895;1290;61272;-83
2023/01/14 01:37:52;;;;;;;;;;;;;;;21.14;35.41;101394.42;105505;1294;61275;-83
2023/01/14 01:40:18;;;;;;;;;;;;;;;21.14;35.50;101394.78;105467;1289;61173;-83
2023/01/14 01:42:56;;;;;;;;;;;;;;;21.14;35.57;101392.06;105389;1289;61427;-82
2023/01/14 01:45:29;;;;;;;;;;;;;;;21.15;35.61;101387.23;105481;1290;74615;-82
2023/01/14 01:47:56;;;;;;;;;;;;;;;21.15;35.37;101385.06;105433;1290;61120;-82
2023/01/14 01:50:22;;;;;;;;;;;;;;;21.14;35.59;101380.79;105451;1292;61340;-82
2023/01/14 01:52:48;;;;;;;;;;;;;;;21.14;35.51;101379.55;105503;1290;61179;-82
2023/01/14 01:55:13;;;;;;;;;;;;;;;21.14;35.57;101375.77;105383;1292;61302;-82
2023/01/14 01:57:39;;;;;;;;;;;;;;;21.14;35.44;101376.67;105509;1295;60256;-82
2023/01/14 02:00:07;;;;;;;;;;;;;;;21.15;35.41;101373.26;105276;1296;61299;-83
2023/01/14 02:02:32;;;;;;;;;;;;;;;21.15;35.49;101367.89;105375;1292;61158;-83
2023/01/14 02:04:58;;;;;;;;;;;;;;;21.15;35.51;101364.48;105428;1289;60184;-83
2023/01/14 02:07:50;;;;;;;;;;;;;;;21.14;35.49;101365.05;105455;1292;61302;-82
2023/01/14 02:10:16;;;;;;;;;;;;;;;21.14;35.30;101363.42;104853;1298;61693;-83
2023/01/14 02:12:43;;;;;;;;;;;;;;;21.15;35.34;101361.27;104824;1298;61528;-83
2023/01/14 02:15:17;;;;;;;;;;;;;;;21.15;35.38;101357.13;104926;1298;72619;-83
2023/01/14 02:17:57;;;;;;;;;;;;;;;21.15;35.30;101353.20;105098;1292;74586;-83
2023/01/14 02:20:28;;;;;;;;;;;;;;;21.15;35.36;101351.94;105252;1297;61294;-83
2023/01/14 02:23:09;;;;;;;;;;;;;;;21.15;35.41;101348.36;105288;1292;61173;-83
2023/01/14 02:25:53;;;;;;;;;;;;;;;21.15;35.37;101349.96;105210;1292;73569;-83
2023/01/14 02:28:31;;;;;;;;;;;;;;;21.15;35.36;101346.38;105205;1297;75469;-83
2023/01/14 02:30:57;;;;;;;;;;;;;;;21.15;35.42;101347.45;105144;1298;61138;-83
2023/01/14 02:33:41;;;;;;;;;;;;;;;21.15;35.40;101345.85;105239;1297;60341;-83
2023/01/14 02:36:27;;;;;;;;;;;;;;;21.16;35.35;101345.81;105217;1293;72577;-83
2023/01/14 02:39:11;;;;;;;;;;;;;;;21.16;35.45;101345.28;105279;1294;74435;-83
2023/01/14 02:44:24;;;;;;;;;;;;;;;21.16;35.43;101341.88;105250;1296;61335;-83
2023/01/14 02:46:53;;;;;;;;;;;;;;;21.16;35.50;101344.70;105352;1285;72506;-83
2023/01/14 02:49:20;;;;;;;;;;;;;;;21.16;35.40;101344.70;105910;1286;73648;-83
2023/01/14 02:51:46;;;;;;;;;;;;;;;21.16;35.52;101348.11;105912;1286;61208;-83
2023/01/14 02:54:11;;;;;;;;;;;;;;;21.16;35.51;101346.14;105954;1286;60125;-82
2023/01/14 02:56:37;;;;;;;;;;;;;;;21.16;35.30;101341.48;105947;1286;61282;-82
2023/01/14 02:59:22;;;;;;;;;;;;;;;21.16;35.47;101340.41;105970;1289;61329;-81
2023/01/14 03:02:06;;;;;;;;;;;;;;;21.16;35.34;101340.92;106005;1285;61110;-81
2023/01/14 03:04:36;;;;;;;;;;;;;;;21.16;35.36;101332.03;105970;1284;61290;-82
2023/01/14 03:07:20;;;;;;;;;;;;;;;21.16;35.52;101330.95;105984;1288;73729;-82
2023/01/14 03:09:50;;;;;;;;;;;;;;;21.16;35.23;101330.73;105969;1285;74472;-82
2023/01/14 03:12:28;;;;;;;;;;;;;;;21.16;35.50;101333.59;105963;1286;61282;-82
2023/01/14 03:14:56;;;;;;;;;;;;;;;21.16;35.49;101337.73;106015;1285;61266;-82
2023/01/14 03:17:22;;;;;;;;;;;;;;;21.16;35.41;101338.62;105999;1286;73425;-82
2023/01/14 03:19:51;;;;;;;;;;;;;;;21.16;35.51;101335.23;105941;1286;61419;-82
2023/01/14 03:22:17;;;;;;;;;;;;;;;21.17;35.40;101340.20;105905;1286;61176;-82
2023/01/14 03:24:44;;;;;;;;;;;;;;;21.17;35.40;101335.36;106005;1286;61285;-83
2023/01/14 03:27:11;;;;;;;;;;;;;;;21.17;35.46;101333.77;105914;1286;61241;-82
2023/01/14 03:29:41;;;;;;;;;;;;;;;21.17;35.37;101334.09;105984;1286;74451;-82
2023/01/14 03:32:08;;;;;;;;;;;;;;;21.17;35.45;101333.91;105671;1284;61292;-82
2023/01/14 03:34:35;;;;;;;;;;;;;;;21.17;35.47;101329.95;105945;1286;61055;-82
2023/01/14 03:37:01;;;;;;;;;;;;;;;21.18;35.42;101328.31;105956;1289;72518;-82
2023/01/14 03:39:27;;;;;;;;;;;;;;;21.17;35.48;101328.69;105745;1286;61348;-82
2023/01/14 03:42:39;;;;;;;;;;;;;;;21.18;35.41;101327.59;105928;1286;61333;-83
2023/01/14 03:44:46;;;;;;;;;;;;;;;21.18;35.46;101331.18;105915;1288;61259;-83
2023/01/14 03:47:11;;;;;;;;;;;;;;;21.18;35.43;101329.02;105990;1284;73426;-82
2023/01/14 03:49:37;;;;;;;;;;;;;;;21.18;35.40;101326.86;105960;1288;61256;-82
2023/01/14 03:52:02;;;;;;;;;;;;;;;21.18;35.47;101324.71;105945;1289;61316;-82
2023/01/14 03:54:30;;;;;;;;;;;;;;;21.18;35.47;101322.94;106012;1286;60078;-82
2023/01/14 03:57:04;;;;;;;;;;;;;;;21.18;35.46;101322.20;105953;1286;61316;-82
2023/01/14 03:59:35;;;;;;;;;;;;;;;21.18;35.40;101324.90;106002;1285;74368;-82
2023/01/14 04:02:03;;;;;;;;;;;;;;;21.18;35.37;101330.41;106053;1285;61611;-82
2023/01/14 04:04:30;;;;;;;;;;;;;;;21.18;35.48;101333.46;105792;1285;61225;-82
2023/01/14 04:06:55;;;;;;;;;;;;;;;21.19;35.35;101335.24;106065;1286;59377;-82
2023/01/14 04:09:20;;;;;;;;;;;;;;;21.19;35.35;101331.84;106070;1288;60132;-82
2023/01/14 04:11:46;;;;;;;;;;;;;;;21.20;35.38;101334.10;105935;1286;61432;-82
2023/01/14 04:16:55;;;;;;;;;;;;;;;21.20;35.37;101336.92;105961;1288;72319;-82
2023/01/14 04:19:23;;;;;;;;;;;;;;;21.20;35.46;101337.98;105908;1289;61356;-83
2023/01/14 04:21:49;;;;;;;;;;;;;;;21.21;35.39;101338.86;105765;1286;61160;-83
2023/01/14 04:24:15;;;;;;;;;;;;;;;21.21;35.34;101336.88;105740;1286;61306;-82
2023/01/14 04:26:41;;;;;;;;;;;;;;;21.21;35.48;101339.92;105767;1286;59499;-82
2023/01/14 04:29:08;;;;;;;;;;;;;;;21.22;35.38;101343.64;105925;1286;61290;-82
2023/01/14 04:31:33;;;;;;;;;;;;;;;21.22;35.38;101340.42;105938;1286;60100;-82
2023/01/14 04:34:00;;;;;;;;;;;;;;;21.21;35.31;101345.83;105976;1286;61240;-82
2023/01/14 04:36:25;;;;;;;;;;;;;;;21.21;35.30;101348.52;105945;1286;61416;-82
2023/01/14 04:38:51;;;;;;;;;;;;;;;21.21;35.28;101350.69;105957;1286;61378;-82
2023/01/14 04:44:01;;;;;;;;;;;;;;;21.20;35.46;101359.10;105945;1284;61224;-82
2023/01/14 04:46:27;;;;;;;;;;;;;;;21.20;35.44;101363.07;105981;1286;61361;-82
2023/01/14 04:48:53;;;;;;;;;;;;;;;21.20;35.50;101368.08;105903;1286;61279;-82
2023/01/14 04:51:19;;;;;;;;;;;;;;;21.21;35.35;101369.64;105910;1286;61294;-83
2023/01/14 04:53:45;;;;;;;;;;;;;;;21.21;35.41;101373.41;105968;1284;61262;-83
2023/01/14 04:56:10;;;;;;;;;;;;;;;21.21;35.34;101373.55;105931;1285;61289;-83
2023/01/14 04:58:36;;;;;;;;;;;;;;;21.20;35.40;101377.18;106041;1286;61217;-83
2023/01/14 05:01:01;;;;;;;;;;;;;;;21.21;35.35;101379.84;105922;1284;73311;-82
2023/01/14 05:03:27;;;;;;;;;;;;;;;21.22;35.33;101385.00;106018;1286;61391;-82
2023/01/14 05:05:53;;;;;;;;;;;;;;;21.22;35.43;101388.57;105916;1284;61263;-82
2023/01/14 05:08:20;;;;;;;;;;;;;;;21.23;35.34;101392.98;105935;1286;61346;-82
2023/01/14 05:10:46;;;;;;;;;;;;;;;21.22;35.36;101389.95;105946;1284;61274;-82
2023/01/14 05:13:12;;;;;;;;;;;;;;;21.21;35.37;101388.39;105992;1286;61340;-83
2023/01/14 05:15:38;;;;;;;;;;;;;;;21.21;35.31;101387.14;105915;1286;61461;-83
2023/01/14 05:18:04;;;;;;;;;;;;;;;21.22;35.35;101388.02;105981;1286;60041;-83
2023/01/14 05:20:30;;;;;;;;;;;;;;;21.22;35.31;101390.65;106035;1286;61226;-82
2023/01/14 05:23:03;;;;;;;;;;;;;;;21.22;35.37;101392.45;105981;1285;73531;-82
2023/01/14 05:25:31;;;;;;;;;;;;;;;21.22;35.40;101391.94;105987;1286;74449;-83
2023/01/14 05:28:00;;;;;;;;;;;;;;;21.22;35.25;101388.70;105881;1286;61285;-83
2023/01/14 05:30:26;;;;;;;;;;;;;;;21.22;35.49;101387.62;106032;1285;61264;-83
2023/01/14 05:32:52;;;;;;;;;;;;;;;21.23;35.33;101389.20;105983;1286;59958;-83
2023/01/14 05:35:18;;;;;;;;;;;;;;;21.23;35.38;101385.24;105910;1285;61195;-82
2023/01/14 05:37:43;;;;;;;;;;;;;;;21.23;35.38;101386.13;105771;1286;61308;-82
2023/01/14 05:40:10;;;;;;;;;;;;;;;21.24;35.39;101389.67;105923;1285;61271;-83
2023/01/14 05:45:40;;;;;;;;;;;;;;;21.24;35.28;101391.83;105949;1286;75602;-82
2023/01/14 05:48:10;;;;;;;;;;;;;;;21.24;35.49;101394.84;105948;1285;61238;-82
2023/01/14 05:50:36;;;;;;;;;;;;;;;21.24;35.42;101394.48;105909;1285;61283;-82
2023/01/14 05:53:02;;;;;;;;;;;;;;;21.24;35.33;101397.02;105966;1285;61726;-82
2023/01/14 05:55:28;;;;;;;;;;;;;;;21.24;35.42;101392.91;105942;1284;60092;-82
2023/01/14 05:57:56;;;;;;;;;;;;;;;21.24;35.31;101387.71;105762;1284;61460;-82
2023/01/14 06:08:47;;;;;;;;;;;;;;;21.24;35.31;101385.38;105228;1292;61295;-83
2023/01/14 06:12:36;;;;;;;;;;;;;;;21.24;35.23;101386.26;105003;1295;61406;-83
2023/01/14 06:14:33;;;;;;;;;;;;;;;21.24;35.24;101388.06;104640;1300;72462;-82
2023/01/14 06:17:02;;;;;;;;;;;;;;;21.24;35.38;101388.41;104642;1306;75482;-83
2023/01/14 06:19:28;;;;;;;;;;;;;;;21.25;35.46;101394.25;104670;1301;61322;-83
2023/01/14 06:21:53;;;;;;;;;;;;;;;21.25;35.42;101390.52;104684;1306;61331;-83
2023/01/14 06:24:21;;;;;;;;;;;;;;;21.25;35.35;101392.27;104693;1299;61411;-82
2023/01/14 06:26:46;;;;;;;;;;;;;;;21.25;35.41;101392.64;104671;1305;61293;-82
2023/01/14 06:29:13;;;;;;;;;;;;;;;21.25;35.27;101394.79;104672;1299;61447;-82
2023/01/14 06:31:39;;;;;;;;;;;;;;;21.25;35.33;101394.25;104656;1300;61337;-82
2023/01/14 06:34:04;;;;;;;;;;;;;;;21.25;35.33;101398.89;104803;1299;60097;-82
2023/01/14 06:36:30;;;;;;;;;;;;;;;21.25;35.30;101399.41;104819;1299;59919;-83
2023/01/14 06:38:56;;;;;;;;;;;;;;;21.25;35.29;101400.48;104900;1300;60103;-83
2023/01/14 06:41:21;;;;;;;;;;;;;;;21.26;35.29;101402.95;104840;1300;59762;-82
2023/01/14 06:43:47;;;;;;;;;;;;;;;21.26;35.35;101403.83;104811;1299;61347;-82
2023/01/14 06:46:15;;;;;;;;;;;;;;;21.27;35.38;101407.18;104940;1291;61258;-82
2023/01/14 06:48:41;;;;;;;;;;;;;;;21.28;35.26;101412.17;105193;1291;61363;-82
2023/01/14 06:51:09;;;;;;;;;;;;;;;21.28;35.44;101412.17;105459;1286;61426;-82
2023/01/14 06:53:35;;;;;;;;;;;;;;;21.28;35.30;101408.39;105964;1285;61224;-82
2023/01/14 06:56:04;;;;;;;;;;;;;;;21.29;35.40;101410.16;105964;1285;61337;-82
2023/01/14 06:58:30;;;;;;;;;;;;;;;21.29;35.30;101409.98;105901;1285;76325;-83
2023/01/14 07:00:56;;;;;;;;;;;;;;;21.28;35.24;101410.55;105756;1290;61253;-83
2023/01/14 07:03:21;;;;;;;;;;;;;;;21.28;35.35;101411.61;105770;1286;61196;-83
2023/01/14 07:05:47;;;;;;;;;;;;;;;21.28;35.33;101412.90;106020;1286;61317;-82
2023/01/14 07:08:13;;;;;;;;;;;;;;;21.28;35.36;101415.57;105943;1286;60041;-83
2023/01/14 07:10:39;;;;;;;;;;;;;;;21.29;35.28;101414.46;105919;1285;61920;-82
2023/01/14 07:13:05;;;;;;;;;;;;;;;21.29;35.39;101412.84;105793;1288;61328;-82
2023/01/14 07:15:30;;;;;;;;;;;;;;;21.29;35.29;101411.75;105781;1286;60093;-83
2023/01/14 07:17:57;;;;;;;;;;;;;;;21.29;35.18;101412.81;105891;1286;61228;-83
2023/01/14 07:20:22;;;;;;;;;;;;;;;21.29;35.24;101416.76;105934;1286;61355;-83
2023/01/14 07:23:12;;;;;;;;;;;;;;;21.28;35.29;101418.06;105959;1285;61262;-82
2023/01/14 07:25:39;;;;;;;;;;;;;;;21.28;35.26;101415.17;105530;1289;61273;-84
2023/01/14 07:28:07;;;;;;;;;;;;;;;21.29;35.23;101414.99;105472;1292;73202;-82
2023/01/14 07:30:34;;;;;;;;;;;;;;;21.29;35.23;101419.11;105378;1289;75594;-82
2023/01/14 07:33:00;;;;;;;;;;;;;;;21.29;35.19;101417.66;105366;1289;61314;-82
2023/01/14 07:35:26;;;;;;;;;;;;;;;21.29;35.36;101422.11;105504;1289;61351;-82
2023/01/14 07:37:55;;;;;;;;;;;;;;;21.29;35.33;101421.02;105436;1289;61307;-82
2023/01/14 07:40:22;;;;;;;;;;;;;;;21.29;35.25;101419.61;105311;1289;74453;-83
2023/01/14 07:42:47;;;;;;;;;;;;;;;21.30;35.32;101423.33;105421;1289;61313;-82
2023/01/14 07:45:13;;;;;;;;;;;;;;;21.29;35.20;101424.42;105406;1289;61220;-82
2023/01/14 07:47:38;;;;;;;;;;;;;;;21.30;35.30;101426.17;105302;1292;61736;-82
2023/01/14 07:50:04;;;;;;;;;;;;;;;21.30;35.32;101425.11;105498;1291;61291;-83
2023/01/14 07:52:30;;;;;;;;;;;;;;;21.30;35.22;101417.58;105260;1289;61423;-82
2023/01/14 07:54:56;;;;;;;;;;;;;;;21.31;35.20;101422.57;105391;1289;61305;-82
2023/01/14 07:57:21;;;;;;;;;;;;;;;21.30;35.25;101422.94;105243;1292;61338;-82
2023/01/14 07:59:47;;;;;;;;;;;;;;;21.31;35.16;101421.67;105258;1292;61305;-82
2023/01/14 08:02:12;;;;;;;;;;;;;;;21.31;35.15;101421.13;105438;1295;61442;-82
2023/01/14 08:04:38;;;;;;;;;;;;;;;21.31;35.16;101421.31;105974;1284;61467;-82
2023/01/14 08:07:07;;;;;;;;;;;;;;;21.31;35.26;101420.55;105923;1286;61196;-83
2023/01/14 08:09:33;;;;;;;;;;;;;;;21.31;35.26;101421.29;105891;1284;61119;-83
2023/01/14 08:11:58;;;;;;;;;;;;;;;21.32;35.33;101424.30;105918;1285;61246;-82
2023/01/14 08:14:24;;;;;;;;;;;;;;;21.31;35.29;101424.51;105881;1286;61421;-82
2023/01/14 08:16:49;;;;;;;;;;;;;;;21.32;35.17;101423.76;105916;1286;61269;-82
2023/01/14 08:19:17;;;;;;;;;;;;;;;21.32;35.16;101430.89;106051;1285;59944;-82
2023/01/14 08:21:43;;;;;;;;;;;;;;;21.32;35.20;101428.74;105899;1286;60154;-82
2023/01/14 08:24:10;;;;;;;;;;;;;;;21.32;35.24;101428.90;106021;1284;73002;-82
2023/01/14 08:26:36;;;;;;;;;;;;;;;21.32;35.35;101434.80;105943;1289;61071;-83
2023/01/14 08:29:02;;;;;;;;;;;;;;;21.33;35.31;101436.58;105250;1285;697300;-82
2023/01/14 08:31:27;;;;;;;;;;;;;;;21.33;35.31;101439.82;106004;1284;61228;-82
2023/01/14 08:33:53;;;;;;;;;;;;;;;21.33;35.29;101442.85;105943;1284;61375;-82
2023/01/14 08:36:19;;;;;;;;;;;;;;;21.33;35.32;101442.84;105901;1286;61250;-82
2023/01/14 08:38:45;;;;;;;;;;;;;;;21.33;35.15;101442.29;105963;1286;61263;-83
2023/01/14 08:41:12;;;;;;;;;;;;;;;21.33;35.20;101438.70;105916;1285;61294;-82
2023/01/14 08:43:38;;;;;;;;;;;;;;;21.33;35.23;101442.09;105934;1286;61124;-82
2023/01/14 08:46:04;;;;;;;;;;;;;;;21.33;35.20;101439.08;105909;1286;61425;-82
2023/01/14 08:48:30;;;;;;;;;;;;;;;21.34;35.24;101443.13;105765;1286;61293;-82
2023/01/14 08:51:00;;;;;;;;;;;;;;;21.34;35.35;101446.54;106042;1286;61281;-82
2023/01/14 08:53:30;;;;;;;;;;;;;;;21.34;35.21;101446.67;105935;1286;61336;-83
2023/01/14 08:55:56;;;;;;;;;;;;;;;21.35;35.28;101446.84;106045;1285;72768;-82
2023/01/14 08:58:22;;;;;;;;;;;;;;;21.35;35.19;101442.88;105960;1285;74543;-83
2023/01/14 09:00:48;;;;;;;;;;;;;;;21.35;35.18;101445.91;106103;1286;61294;-83
2023/01/14 09:03:14;;;;;;;;;;;;;;;21.35;35.16;101444.65;106101;1285;61308;-82
2023/01/14 09:05:39;;;;;;;;;;;;;;;21.36;35.22;101442.98;106112;1286;61365;-82
2023/01/14 09:19:04;;;;;;;;;;;;;;;21.39;35.26;101439.26;105916;1285;74500;-82
2023/01/14 09:21:31;;;;;;;;;;;;;;;21.39;35.32;101438.36;105941;1284;61384;-82
2023/01/14 09:23:56;;;;;;;;;;;;;;;21.39;35.06;101433.67;105924;1286;61371;-83
2023/01/14 09:26:22;;;;;;;;;;;;;;;21.39;35.18;101432.63;105916;1285;61276;-83
2023/01/14 09:28:47;;;;;;;;;;;;;;;21.39;35.06;101434.37;105997;1285;61283;-82
2023/01/14 09:31:13;;;;;;;;;;;;;;;21.39;35.33;101434.56;105975;1285;61362;-83
2023/01/14 09:34:01;;;;;;;;;;;;;;;21.39;35.17;101434.36;105769;1284;61454;-82
2023/01/14 09:36:29;;;;;;;;;;;;;;;21.39;35.15;101428.84;105498;1289;61762;-82
2023/01/14 09:38:55;;;;;;;;;;;;;;;21.39;35.20;101430.98;105383;1289;73449;-82
2023/01/14 09:41:27;;;;;;;;;;;;;;;21.39;35.18;101431.69;105453;1291;61283;-82
2023/01/14 09:43:53;;;;;;;;;;;;;;;21.39;35.09;101431.69;105315;1292;61152;-83
2023/01/14 09:46:29;;;;;;;;;;;;;;;21.39;35.14;101432.21;105325;1289;61267;-83
2023/01/14 09:48:55;;;;;;;;;;;;;;;21.39;35.12;101429.90;105386;1292;73572;-82
2023/01/14 09:51:30;;;;;;;;;;;;;;;21.40;35.20;101427.88;105417;1289;61286;-82
2023/01/14 09:54:04;;;;;;;;;;;;;;;21.40;35.05;101427.69;105445;1292;60021;-82
2023/01/14 09:56:29;;;;;;;;;;;;;;;21.40;35.13;101424.48;105505;1292;61187;-82
2023/01/14 09:58:57;;;;;;;;;;;;;;;21.40;35.02;101426.61;105400;1289;61385;-82
2023/01/14 10:01:36;;;;;;;;;;;;;;;21.40;35.08;101424.80;105378;1291;74262;-82
2023/01/14 10:04:24;;;;;;;;;;;;;;;21.41;35.08;101423.54;105407;1289;61366;-83
2023/01/14 10:06:50;;;;;;;;;;;;;;;21.41;35.22;101420.85;105472;1289;61324;-82
2023/01/14 10:09:18;;;;;;;;;;;;;;;21.40;35.12;101421.91;105378;1292;61407;-82
2023/01/14 10:11:44;;;;;;;;;;;;;;;21.41;35.22;101420.30;105410;1291;75585;-83
2023/01/14 10:14:15;;;;;;;;;;;;;;;21.41;35.20;101421.18;105718;1286;61407;-82
2023/01/14 10:16:42;;;;;;;;;;;;;;;21.41;35.12;101421.70;106015;1285;61109;-82
2023/01/14 10:19:14;;;;;;;;;;;;;;;21.41;35.10;101421.16;105927;1284;71675;-82
2023/01/14 10:21:45;;;;;;;;;;;;;;;21.42;35.06;101421.84;106008;1284;74428;-82
2023/01/14 10:24:12;;;;;;;;;;;;;;;21.42;35.11;101419.16;106009;1285;61270;-82
2023/01/14 10:26:38;;;;;;;;;;;;;;;21.42;35.14;101416.64;106045;1286;61748;-82
2023/01/14 10:29:09;;;;;;;;;;;;;;;21.42;35.06;101415.04;105913;1286;60091;-82
2023/01/14 10:31:35;;;;;;;;;;;;;;;21.42;35.06;101416.48;105989;1285;74458;-82
2023/01/14 10:34:01;;;;;;;;;;;;;;;21.42;35.22;101410.00;106057;1285;61288;-83
2023/01/14 10:36:29;;;;;;;;;;;;;;;21.42;35.22;101410.58;105952;1286;61310;-82
2023/01/14 10:38:55;;;;;;;;;;;;;;;21.42;35.10;101405.19;105594;1284;72574;-82
2023/01/14 10:41:48;;;;;;;;;;;;;;;21.42;35.08;101407.67;105737;1286;61439;-82
2023/01/14 10:44:06;;;;;;;;;;;;;;;21.42;35.13;101403.91;105943;1286;61316;-82
2023/01/14 10:46:32;;;;;;;;;;;;;;;21.42;35.19;101400.70;106023;1284;59262;-83
2023/01/14 10:49:03;;;;;;;;;;;;;;;21.42;35.12;101397.84;106023;1286;61244;-83
2023/01/14 10:51:32;;;;;;;;;;;;;;;21.43;35.09;101395.46;105923;1289;74336;-82
2023/01/14 10:54:11;;;;;;;;;;;;;;;21.43;35.21;101395.81;106005;1284;61135;-82
2023/01/14 10:56:38;;;;;;;;;;;;;;;21.43;35.19;101394.02;105853;1286;61244;-82
2023/01/14 10:59:04;;;;;;;;;;;;;;;21.43;35.18;101392.38;105913;1284;61336;-82
2023/01/14 11:01:39;;;;;;;;;;;;;;;21.43;35.18;101395.09;105936;1286;61250;-83
2023/01/14 11:04:04;;;;;;;;;;;;;;;21.44;35.20;101391.48;105925;1285;61208;-82
2023/01/14 11:06:30;;;;;;;;;;;;;;;21.43;35.07;101392.21;106014;1286;61327;-82
2023/01/14 11:08:55;;;;;;;;;;;;;;;21.44;35.08;101396.86;105912;1286;61214;-82
2023/01/14 11:11:22;;;;;;;;;;;;;;;21.44;35.14;101395.92;105771;1286;61353;-82
2023/01/14 11:13:48;;;;;;;;;;;;;;;21.44;35.06;101394.34;105975;1286;61356;-82
2023/01/14 11:16:36;;;;;;;;;;;;;;;21.43;35.09;101396.69;105914;1285;61267;-82
2023/01/14 11:19:14;;;;;;;;;;;;;;;21.44;35.01;101394.31;106038;1285;72295;-83
2023/01/14 11:21:41;;;;;;;;;;;;;;;21.44;34.96;101394.17;106010;1286;74455;-83
2023/01/14 11:24:18;;;;;;;;;;;;;;;21.44;34.93;101397.55;106086;1285;61272;-82
2023/01/14 11:26:43;;;;;;;;;;;;;;;21.45;35.02;101398.23;106033;1286;61336;-83
2023/01/14 11:29:12;;;;;;;;;;;;;;;21.45;34.94;101396.98;105834;1286;60019;-83
2023/01/14 11:31:38;;;;;;;;;;;;;;;21.45;35.01;101395.02;106113;1284;74480;-83
2023/01/14 11:34:05;;;;;;;;;;;;;;;21.45;35.08;101396.95;106040;1285;61188;-82
2023/01/14 11:36:32;;;;;;;;;;;;;;;21.46;35.17;101397.25;106068;1284;61099;-82
2023/01/14 11:38:58;;;;;;;;;;;;;;;21.46;34.91;101396.01;106135;1285;72509;-82
2023/01/14 11:41:31;;;;;;;;;;;;;;;21.46;35.01;101394.39;106108;1285;61189;-82
2023/01/14 11:44:01;;;;;;;;;;;;;;;21.47;35.01;101397.55;105987;1286;61103;-82
2023/01/14 11:46:26;;;;;;;;;;;;;;;21.47;35.06;101400.02;105756;1284;61149;-82
2023/01/14 11:49:11;;;;;;;;;;;;;;;21.47;35.03;101401.11;105958;1286;61266;-82
2023/01/14 11:51:38;;;;;;;;;;;;;;;21.47;34.98;101398.83;105921;1284;74267;-83
2023/01/14 11:54:03;;;;;;;;;;;;;;;21.47;34.99;101400.38;106056;1284;61263;-82
2023/01/14 11:56:33;;;;;;;;;;;;;;;21.47;35.02;101401.64;106045;1286;61284;-82
2023/01/14 11:59:10;;;;;;;;;;;;;;;21.47;35.13;101400.20;105936;1286;72183;-82
2023/01/14 12:01:38;;;;;;;;;;;;;;;21.48;34.89;101401.80;106049;1284;74683;-82
2023/01/14 12:04:06;;;;;;;;;;;;;;;21.48;35.13;101401.40;106049;1286;61352;-82
2023/01/14 12:06:41;;;;;;;;;;;;;;;21.48;35.14;101398.21;105995;1286;61154;-82
2023/01/14 12:09:10;;;;;;;;;;;;;;;21.48;35.02;101396.06;106055;1286;74131;-82
2023/01/14 12:12:08;;;;;;;;;;;;;;;21.48;35.01;101393.18;105969;1284;75486;-82
2023/01/14 12:17:22;;;;;;;;;;;;;;;21.49;34.97;101395.44;105971;1285;61368;-82
2023/01/14 12:19:59;;;;;;;;;;;;;;;21.49;34.94;101395.26;106060;1285;72453;-82
2023/01/14 12:22:51;;;;;;;;;;;;;;;21.49;35.03;101395.25;106031;1286;75875;-82
2023/01/14 12:25:17;;;;;;;;;;;;;;;21.50;34.99;101395.23;105620;1285;61375;-82
2023/01/14 12:27:48;;;;;;;;;;;;;;;21.50;34.90;101393.77;106018;1285;60078;-83
2023/01/14 12:30:29;;;;;;;;;;;;;;;21.50;35.05;101400.05;106010;1286;73481;-83
2023/01/14 12:32:58;;;;;;;;;;;;;;;21.50;35.10;101401.49;106012;1284;74419;-83
2023/01/14 12:35:24;;;;;;;;;;;;;;;21.50;35.06;101400.76;106042;1285;60902;-83
2023/01/14 12:37:55;;;;;;;;;;;;;;;21.51;35.07;101408.60;105964;1286;61144;-82
2023/01/14 12:46:10;;;;;;;;;;;;;;;21.50;34.96;101412.05;105960;1284;61095;-82
2023/01/14 12:48:35;;;;;;;;;;;;;;;21.51;34.95;101415.22;105996;1286;61346;-82
2023/01/14 12:51:17;;;;;;;;;;;;;;;21.50;35.05;101418.12;105990;1284;61269;-82
2023/01/14 12:53:53;;;;;;;;;;;;;;;21.50;34.96;101417.96;105980;1285;75299;-82
2023/01/14 12:56:20;;;;;;;;;;;;;;;21.50;34.97;101424.22;106018;1285;61089;-82
2023/01/14 12:58:56;;;;;;;;;;;;;;;21.50;34.84;101426.02;105792;1286;61260;-82
2023/01/14 13:01:23;;;;;;;;;;;;;;;21.50;34.89;101424.76;105927;1285;72624;-82
2023/01/14 13:03:52;;;;;;;;;;;;;;;21.50;34.96;101426.57;105983;1285;61830;-83
2023/01/14 13:06:39;;;;;;;;;;;;;;;21.50;35.03;101425.48;105973;1284;61430;-83
2023/01/14 13:09:05;;;;;;;;;;;;;;;21.50;34.92;101427.27;105982;1285;61250;-83
2023/01/14 13:11:41;;;;;;;;;;;;;;;21.50;34.82;101430.31;105942;1285;72553;-82
2023/01/14 13:14:14;;;;;;;;;;;;;;;21.50;34.98;101429.94;105980;1286;74320;-82